createdAt,value
2016-12-04T00:00:14.846Z,43.6
2016-12-04T00:01:15.242Z,43.2
2016-12-04T00:02:15.641Z,43.3
2016-12-04T00:03:16.038Z,43.2
2016-12-04T00:04:16.431Z,43.4
2016-12-04T00:05:16.816Z,43.4
2016-12-04T00:06:17.213Z,43
2016-12-04T00:07:17.603Z,43.3
2016-12-04T00:08:17.997Z,43.4
2016-12-04T00:09:18.398Z,43.1
2016-12-04T00:10:18.800Z,43.2
2016-12-04T00:11:19.195Z,43.1
2016-12-04T00:12:19.574Z,43.3
2016-12-04T00:13:19.962Z,43
2016-12-04T00:14:20.368Z,43.4
2016-12-04T00:15:21.112Z,42.9
2016-12-04T00:16:21.519Z,43.1
2016-12-04T00:17:21.912Z,43.5
2016-12-04T00:18:22.297Z,43
2016-12-04T00:19:22.694Z,43
2016-12-04T00:20:23.094Z,43.5
2016-12-04T00:21:23.497Z,43.2
2016-12-04T00:22:23.894Z,43.1
2016-12-04T00:23:24.294Z,43.3
2016-12-04T00:24:24.683Z,43.3
2016-12-04T00:25:25.074Z,42.8
2016-12-04T00:26:25.509Z,42.9
2016-12-04T00:27:25.902Z,43.3
2016-12-04T00:28:26.306Z,43.3
2016-12-04T00:29:26.706Z,43.4
2016-12-04T00:30:27.104Z,43.3
2016-12-04T00:31:27.501Z,43.3
2016-12-04T00:32:27.897Z,43
2016-12-04T00:33:28.290Z,43.2
2016-12-04T00:34:28.681Z,43.1
2016-12-04T00:35:29.075Z,43.3
2016-12-04T00:36:29.469Z,43.3
2016-12-04T00:37:29.870Z,43.3
2016-12-04T00:38:30.271Z,43.2
2016-12-04T00:39:30.664Z,43.7
2016-12-04T00:40:31.060Z,43.6
2016-12-04T00:41:31.445Z,43.3
2016-12-04T00:42:31.837Z,43.2
2016-12-04T00:43:32.235Z,43.6
2016-12-04T00:44:32.640Z,43.5
2016-12-04T00:45:33.050Z,43.6
2016-12-04T00:46:33.455Z,43.2
2016-12-04T00:47:33.851Z,43.5
2016-12-04T00:48:34.236Z,43.7
2016-12-04T00:49:34.626Z,43.3
2016-12-04T00:50:35.023Z,43.8
2016-12-04T00:51:35.415Z,43.7
2016-12-04T00:52:35.820Z,43.3
2016-12-04T00:53:36.216Z,43.3
2016-12-04T00:54:36.615Z,43.5
2016-12-04T00:55:37.003Z,43.7
2016-12-04T00:56:37.386Z,43.1
2016-12-04T00:57:37.776Z,43.3
2016-12-04T00:58:38.172Z,43.2
2016-12-04T00:59:38.570Z,43.3
2016-12-04T01:00:38.971Z,43.4
2016-12-04T01:01:39.379Z,43.3
2016-12-04T01:02:39.779Z,43.1
2016-12-04T01:03:40.176Z,43.4
2016-12-04T01:04:40.564Z,43.2
2016-12-04T01:05:40.951Z,43.2
2016-12-04T01:06:41.339Z,43.3
2016-12-04T01:07:41.738Z,43.1
2016-12-04T01:08:42.139Z,43.2
2016-12-04T01:09:42.530Z,43.2
2016-12-04T01:10:42.930Z,43.1
2016-12-04T01:11:43.422Z,43.2
2016-12-04T01:12:43.810Z,43.5
2016-12-04T01:13:44.202Z,43.5
2016-12-04T01:14:44.588Z,43.6
2016-12-04T01:15:44.979Z,43.5
2016-12-04T01:16:45.385Z,43.1
2016-12-04T01:17:45.791Z,43.2
2016-12-04T01:18:46.196Z,43.2
2016-12-04T01:19:46.597Z,43.1
2016-12-04T01:20:46.981Z,43.4
2016-12-04T01:21:47.372Z,43.6
2016-12-04T01:22:47.874Z,43.7
2016-12-04T01:23:48.406Z,43.7
2016-12-04T01:24:48.824Z,43.4
2016-12-04T01:25:49.207Z,43.2
2016-12-04T01:26:49.623Z,43.4
2016-12-04T01:27:50.014Z,43.3
2016-12-04T01:28:50.408Z,43.2
2016-12-04T01:29:50.804Z,43
2016-12-04T01:30:51.209Z,43.3
2016-12-04T01:31:51.605Z,43.5
2016-12-04T01:32:51.989Z,43.5
2016-12-04T01:33:52.380Z,43.5
2016-12-04T01:34:52.772Z,43.1
2016-12-04T01:35:53.160Z,43.4
2016-12-04T01:36:53.561Z,43.3
2016-12-04T01:37:53.960Z,43
2016-12-04T01:38:54.357Z,43
2016-12-04T01:39:54.747Z,42.9
2016-12-04T01:40:55.137Z,43.3
2016-12-04T01:41:55.527Z,43.3
2016-12-04T01:42:55.919Z,42.9
2016-12-04T01:43:56.322Z,43.3
2016-12-04T01:44:56.721Z,43.3
2016-12-04T01:45:57.142Z,42.9
2016-12-04T01:46:57.546Z,43.2
2016-12-04T01:47:57.945Z,43.1
2016-12-04T01:48:58.330Z,42.9
2016-12-04T01:49:58.718Z,42.9
2016-12-04T01:50:59.104Z,42.9
2016-12-04T01:51:59.489Z,43.3
2016-12-04T01:52:59.895Z,42.7
2016-12-04T01:54:00.293Z,43.2
2016-12-04T01:55:00.685Z,43.2
2016-12-04T01:56:01.082Z,43.2
2016-12-04T01:57:01.473Z,43.2
2016-12-04T01:58:01.873Z,43.3
2016-12-04T01:59:02.274Z,43.3
2016-12-04T02:00:02.677Z,43.3
2016-12-04T02:01:03.065Z,43.6
2016-12-04T02:02:03.457Z,43.2
2016-12-04T02:03:03.844Z,43.2
2016-12-04T02:04:04.245Z,43.4
2016-12-04T02:05:04.658Z,42.9
2016-12-04T02:06:05.060Z,43.2
2016-12-04T02:07:05.467Z,43.1
2016-12-04T02:08:05.864Z,43.1
2016-12-04T02:09:06.255Z,43.3
2016-12-04T02:10:06.646Z,43.2
2016-12-04T02:11:07.037Z,43.3
2016-12-04T02:12:07.530Z,42.9
2016-12-04T02:13:07.924Z,43
2016-12-04T02:14:08.322Z,43
2016-12-04T02:15:08.717Z,43
2016-12-04T02:16:09.114Z,43.3
2016-12-04T02:17:09.505Z,43.4
2016-12-04T02:18:09.889Z,43.1
2016-12-04T02:19:10.269Z,43.3
2016-12-04T02:20:10.666Z,43.6
2016-12-04T02:21:11.069Z,43.2
2016-12-04T02:22:11.472Z,43.5
2016-12-04T02:23:11.881Z,43.5
2016-12-04T02:24:12.273Z,43.1
2016-12-04T02:25:12.656Z,43.2
2016-12-04T02:26:13.048Z,43.4
2016-12-04T02:27:13.452Z,43.4
2016-12-04T02:28:13.847Z,43.3
2016-12-04T02:29:14.237Z,42.9
2016-12-04T02:30:14.626Z,43.2
2016-12-04T02:31:15.019Z,43.2
2016-12-04T02:32:15.411Z,42.7
2016-12-04T02:33:15.805Z,42.9
2016-12-04T02:34:16.206Z,43
2016-12-04T02:35:16.605Z,42.9
2016-12-04T02:36:16.997Z,43
2016-12-04T02:37:17.385Z,43.3
2016-12-04T02:38:17.772Z,43.3
2016-12-04T02:39:18.158Z,43.3
2016-12-04T02:40:18.548Z,43.4
2016-12-04T02:41:18.946Z,43.3
2016-12-04T02:42:19.346Z,42.9
2016-12-04T02:43:19.744Z,43.1
2016-12-04T02:44:20.137Z,42.9
2016-12-04T02:45:20.528Z,42.7
2016-12-04T02:46:20.948Z,42.8
2016-12-04T02:47:21.335Z,42.6
2016-12-04T02:48:21.725Z,42.6
2016-12-04T02:49:22.122Z,43.3
2016-12-04T02:50:22.523Z,43.1
2016-12-04T02:51:22.922Z,43.1
2016-12-04T02:52:23.317Z,42.9
2016-12-04T02:53:23.704Z,43.2
2016-12-04T02:54:24.086Z,42.9
2016-12-04T02:55:24.471Z,42.9
2016-12-04T02:56:24.865Z,43
2016-12-04T02:57:25.264Z,42.9
2016-12-04T02:58:25.664Z,43.4
2016-12-04T02:59:26.062Z,43.3
2016-12-04T03:00:26.457Z,43.3
2016-12-04T03:01:26.851Z,43.5
2016-12-04T03:02:27.240Z,43
2016-12-04T03:03:27.629Z,43.4
2016-12-04T03:04:28.025Z,43.1
2016-12-04T03:05:28.426Z,43
2016-12-04T03:06:28.828Z,43
2016-12-04T03:07:29.226Z,43
2016-12-04T03:08:29.624Z,43.2
2016-12-04T03:09:30.015Z,43.2
2016-12-04T03:10:30.403Z,43.3
2016-12-04T03:11:30.811Z,43.2
2016-12-04T03:12:31.203Z,43
2016-12-04T03:13:31.603Z,42.9
2016-12-04T03:14:31.998Z,42.9
2016-12-04T03:15:32.395Z,42.9
2016-12-04T03:16:32.798Z,43.5
2016-12-04T03:17:33.192Z,42.9
2016-12-04T03:18:33.584Z,42.9
2016-12-04T03:19:33.976Z,42.8
2016-12-04T03:20:34.372Z,42.9
2016-12-04T03:21:34.775Z,42.5
2016-12-04T03:22:35.171Z,42.9
2016-12-04T03:23:35.572Z,42.9
2016-12-04T03:24:35.963Z,42.8
2016-12-04T03:25:36.349Z,43
2016-12-04T03:26:36.731Z,43
2016-12-04T03:27:37.117Z,42.9
2016-12-04T03:28:37.516Z,42.9
2016-12-04T03:29:37.917Z,42.9
2016-12-04T03:30:38.317Z,42.6
2016-12-04T03:31:38.710Z,43.1
2016-12-04T03:32:39.448Z,42.9
2016-12-04T03:33:39.842Z,42.7
2016-12-04T03:34:40.240Z,42.9
2016-12-04T03:35:40.635Z,43.1
2016-12-04T03:36:41.033Z,43.1
2016-12-04T03:37:41.423Z,42.9
2016-12-04T03:38:41.809Z,42.7
2016-12-04T03:39:42.196Z,42.5
2016-12-04T03:40:42.589Z,42.6
2016-12-04T03:41:42.993Z,42.5
2016-12-04T03:42:43.488Z,42.6
2016-12-04T03:43:43.886Z,42.7
2016-12-04T03:44:44.282Z,43
2016-12-04T03:45:44.677Z,42.5
2016-12-04T03:46:45.067Z,42.9
2016-12-04T03:47:45.456Z,42.9
2016-12-04T03:48:45.844Z,42.6
2016-12-04T03:49:46.238Z,42.2
2016-12-04T03:50:46.637Z,42.5
2016-12-04T03:51:47.032Z,42.5
2016-12-04T03:52:47.435Z,42.7
2016-12-04T03:53:47.833Z,42.6
2016-12-04T03:54:48.222Z,43
2016-12-04T03:55:48.603Z,42.9
2016-12-04T03:56:49.001Z,43.3
2016-12-04T03:57:49.405Z,42.9
2016-12-04T03:58:49.801Z,42.5
2016-12-04T03:59:50.208Z,42.5
2016-12-04T04:00:50.597Z,42.7
2016-12-04T04:01:50.977Z,42.5
2016-12-04T04:02:51.377Z,42.6
2016-12-04T04:03:51.774Z,42.8
2016-12-04T04:04:52.167Z,42.2
2016-12-04T04:05:52.555Z,42.8
2016-12-04T04:06:52.945Z,42.6
2016-12-04T04:07:53.338Z,42.3
2016-12-04T04:08:53.740Z,42.5
2016-12-04T04:09:54.134Z,42.4
2016-12-04T04:10:54.531Z,42.4
2016-12-04T04:11:54.936Z,42.3
2016-12-04T04:12:55.438Z,42.3
2016-12-04T04:13:55.829Z,42.6
2016-12-04T04:14:56.220Z,42.7
2016-12-04T04:15:56.606Z,42.9
2016-12-04T04:16:57.001Z,42.7
2016-12-04T04:17:57.401Z,42.9
2016-12-04T04:18:57.803Z,42.5
2016-12-04T04:19:58.199Z,42.5
2016-12-04T04:20:58.586Z,42.7
2016-12-04T04:21:58.978Z,42.6
2016-12-04T04:22:59.401Z,42.5
2016-12-04T04:23:59.795Z,42.6
2016-12-04T04:25:00.195Z,42.8
2016-12-04T04:26:00.592Z,42.9
2016-12-04T04:27:00.986Z,42.6
2016-12-04T04:28:01.396Z,42.7
2016-12-04T04:29:01.795Z,42.7
2016-12-04T04:30:02.179Z,42.5
2016-12-04T04:31:02.567Z,42.9
2016-12-04T04:32:02.950Z,42.9
2016-12-04T04:33:03.339Z,42.6
2016-12-04T04:34:03.742Z,42.7
2016-12-04T04:35:04.145Z,42.4
2016-12-04T04:36:04.528Z,42.6
2016-12-04T04:37:04.924Z,42.7
2016-12-04T04:38:05.327Z,42.4
2016-12-04T04:39:05.727Z,42.7
2016-12-04T04:40:06.128Z,42.7
2016-12-04T04:41:06.519Z,42.9
2016-12-04T04:42:06.904Z,42.7
2016-12-04T04:43:07.392Z,42.9
2016-12-04T04:44:07.787Z,42.7
2016-12-04T04:45:08.187Z,42.2
2016-12-04T04:46:08.589Z,41.9
2016-12-04T04:47:08.992Z,42.7
2016-12-04T04:48:09.411Z,42.7
2016-12-04T04:49:09.807Z,42.2
2016-12-04T04:50:10.200Z,42.3
2016-12-04T04:51:10.591Z,42.7
2016-12-04T04:52:10.979Z,43
2016-12-04T04:53:11.375Z,42.9
2016-12-04T04:54:11.779Z,42.5
2016-12-04T04:55:12.170Z,42.7
2016-12-04T04:56:12.565Z,42.6
2016-12-04T04:57:12.954Z,42.7
2016-12-04T04:58:13.342Z,42.7
2016-12-04T04:59:13.733Z,42.5
2016-12-04T05:00:14.118Z,42.6
2016-12-04T05:01:14.510Z,42.6
2016-12-04T05:02:14.906Z,42.7
2016-12-04T05:03:15.309Z,42.4
2016-12-04T05:04:15.711Z,42.5
2016-12-04T05:05:16.104Z,42.7
2016-12-04T05:06:16.488Z,42.7
2016-12-04T05:07:16.873Z,42.9
2016-12-04T05:08:17.257Z,42.9
2016-12-04T05:09:17.656Z,42.9
2016-12-04T05:10:18.057Z,42.7
2016-12-04T05:11:18.466Z,42.5
2016-12-04T05:12:18.871Z,42.9
2016-12-04T05:13:19.265Z,42.9
2016-12-04T05:14:19.649Z,42.7
2016-12-04T05:15:20.036Z,43.3
2016-12-04T05:16:20.423Z,42.9
2016-12-04T05:17:20.816Z,43.3
2016-12-04T05:18:21.213Z,43.3
2016-12-04T05:19:21.608Z,43
2016-12-04T05:20:22.010Z,43.2
2016-12-04T05:21:22.407Z,43.2
2016-12-04T05:22:22.800Z,43
2016-12-04T05:23:23.189Z,43.3
2016-12-04T05:24:23.580Z,42.8
2016-12-04T05:25:23.973Z,42.9
2016-12-04T05:26:24.372Z,43
2016-12-04T05:27:24.768Z,43
2016-12-04T05:28:25.166Z,42.9
2016-12-04T05:29:25.560Z,42.9
2016-12-04T05:30:25.954Z,43.2
2016-12-04T05:31:26.341Z,43.3
2016-12-04T05:32:26.728Z,43.2
2016-12-04T05:33:27.126Z,43.6
2016-12-04T05:34:27.527Z,43.3
2016-12-04T05:35:27.929Z,43.6
2016-12-04T05:36:28.330Z,43.5
2016-12-04T05:37:28.728Z,43.7
2016-12-04T05:38:29.113Z,43.8
2016-12-04T05:39:29.511Z,44.3
2016-12-04T05:40:29.914Z,43.9
2016-12-04T05:41:30.304Z,44.1
2016-12-04T05:42:30.692Z,43.9
2016-12-04T05:43:31.178Z,44
2016-12-04T05:44:31.561Z,43.9
2016-12-04T05:45:31.958Z,43.8
2016-12-04T05:46:32.362Z,43.9
2016-12-04T05:47:32.768Z,44
2016-12-04T05:48:33.169Z,44.3
2016-12-04T05:49:33.558Z,43.7
2016-12-04T05:50:33.941Z,43.6
2016-12-04T05:51:34.330Z,43.4
2016-12-04T05:52:34.714Z,43.6
2016-12-04T05:53:35.110Z,43.3
2016-12-04T05:54:35.515Z,43.4
2016-12-04T05:55:35.909Z,43.5
2016-12-04T05:56:36.309Z,43.1
2016-12-04T05:57:36.701Z,43.1
2016-12-04T05:58:37.093Z,43
2016-12-04T05:59:37.483Z,42.9
2016-12-04T06:00:37.876Z,42.8
2016-12-04T06:01:38.265Z,42.8
2016-12-04T06:02:38.660Z,42.7
2016-12-04T06:03:39.059Z,42.8
2016-12-04T06:04:39.465Z,43
2016-12-04T06:05:39.853Z,42.9
